Accueil
METAR-TAF:

METAR-TAF

Aéroports :

Kaboul, Afghanistan

Aéroport international de Kaboul

latitude: 34-38N, longitude: 069-12E, altitude: 1789 m

Observation

Le bulletin a été fait il y a 11 minutes, à 23:50 UTC
Vent 4 kt de est
Température 3°C
Humidité 87%
Pression 1018 hPa
Visibilité: 8000 m

METAR: OAKB 202350Z 10004KT 8000 NSC 03/01 Q1018 NOSIG RMK A3008 BLU BLU

Heure: 04:31 (00:01 UTC)

Prévision

Le bulletin a été fait il y a 56 minutes, à 23:05 UTC
Prévision valable du 21 à 00 UTC au 21 à 24 UTC
Vent 8 kt de nord
Visibilité 10 km ou plus
pas de nuages en-dessous de 1500 mètres et pas de cumulonimbus.
Evoluant progressivement
du 21 à 10 UTC au 21 à 12 UTC
Vent 12 kt de nord/nord-est
Evoluant progressivement
du 21 à 16 UTC au 21 à 18 UTC
Vent 2 kt de direction variable

TAF: OAKB 202305Z 2100/2124 35008KT CAVOK BECMG 2110/2112 03012KT BECMG 2116/2118 VRB02KT

Observations et prévisions météorologiques de plus de 4000 aéroports (messages METAR et TAF).

Les stations disponibles sont représentées par des disques jaunes et rouges sur la carte.

Passer la souris dessus pour voir le nom de la station.

Cliquer dessus pour voir les observations et prévisions météorologiques.

Pour changer de carte: cliquez sur les boutons verts avec une croix noire pour zoomer, sur le bouton vert avec un tiret pour effectuer un zoom arrière, ou sur les flèches vertes pour les cartes adjacentes.


METAR-TAF: